Time;durP1;ratioP1;P1;durP2;ratioP2;P2;SDS_P1;SDS_P2;PMS_P1;PMS_P2;Temp;Humidity;BMP_temperature;BMP_pressure;BME280_temperature;BME280_humidity;BME280_pressure;Samples;Min_cycle;Max_cycle;Signal;HPM_P1;HPM_P2
2022/10/18 00:00:47;;;;;;;30.43;23.40;;;17.80;49.40;;;;;;5072796;28;20173;-44
2022/10/18 00:03:13;;;;;;;31.20;24.97;;;17.70;50.40;;;;;;5072761;28;20161;-44
2022/10/18 00:05:39;;;;;;;27.97;22.13;;;17.80;49.70;;;;;;5072093;28;20196;-43
2022/10/18 00:08:05;;;;;;;30.83;23.60;;;17.80;49.60;;;;;;5072281;28;20533;-44
2022/10/18 00:10:30;;;;;;;31.30;23.23;;;17.80;49.50;;;;;;5072817;28;20187;-43
2022/10/18 00:12:56;;;;;;;30.13;24.83;;;17.70;49.50;;;;;;5072510;28;20295;-43
2022/10/18 00:15:22;;;;;;;28.80;22.03;;;17.70;49.50;;;;;;5072503;28;20184;-43
2022/10/18 00:17:48;;;;;;;28.60;23.70;;;17.80;49.40;;;;;;5071998;28;20225;-45
2022/10/18 00:20:14;;;;;;;27.10;22.37;;;17.80;49.30;;;;;;5072428;28;20407;-44
2022/10/18 00:22:40;;;;;;;35.60;23.60;;;17.70;49.30;;;;;;5072409;28;20200;-45
2022/10/18 00:25:07;;;;;;;30.88;22.48;;;17.70;49.30;;;;;;5072667;28;20200;-44
2022/10/18 00:27:33;;;;;;;31.20;23.50;;;17.70;49.30;;;;;;5071804;28;20663;-43
2022/10/18 00:29:59;;;;;;;29.75;21.73;;;17.70;49.20;;;;;;5072467;28;20264;-44
2022/10/18 00:32:25;;;;;;;32.50;22.07;;;17.60;49.10;;;;;;5071989;28;20259;-44
2022/10/18 00:34:51;;;;;;;28.08;23.05;;;17.70;49.30;;;;;;5071926;28;20427;-43
2022/10/18 00:37:17;;;;;;;28.53;22.93;;;17.70;49.20;;;;;;5071657;28;20185;-43
2022/10/18 00:39:44;;;;;;;34.45;24.70;;;17.60;49.10;;;;;;5072312;28;20632;-44
2022/10/18 00:42:18;;;;;;;32.03;23.23;;;17.60;49.30;;;;;;5072141;28;20234;-44
2022/10/18 00:44:44;;;;;;;31.25;22.52;;;17.60;49.30;;;;;;5072293;28;20175;-45
2022/10/18 00:47:12;;;;;;;28.03;19.90;;;17.60;49.30;;;;;;5071585;28;20521;-44
2022/10/18 00:49:54;;;;;;;29.48;21.70;;;17.60;49.20;;;;;;5072053;28;20251;-45
2022/10/18 00:52:26;;;;;;;28.63;20.70;;;17.60;49.20;;;;;;5072347;28;20165;-44
2022/10/18 00:54:54;;;;;;;30.25;21.73;;;17.50;49.20;;;;;;5072162;28;20236;-45
2022/10/18 00:57:20;;;;;;;31.23;21.17;;;17.50;49.20;;;;;;5071820;28;20486;-43
2022/10/18 00:59:47;;;;;;;27.17;21.58;;;17.60;49.20;;;;;;5072073;28;20157;-44
2022/10/18 01:02:16;;;;;;;29.70;21.20;;;17.50;49.30;;;;;;5071867;28;20225;-43
2022/10/18 01:04:45;;;;;;;32.20;21.73;;;17.50;49.30;;;;;;5071845;28;20555;-45
2022/10/18 01:07:42;;;;;;;28.02;19.35;;;17.50;49.30;;;;;;5071348;28;20555;-43
2022/10/18 01:10:50;;;;;;;30.65;20.90;;;17.50;49.30;;;;;;5071986;28;20223;-43
2022/10/18 01:13:48;;;;;;;25.58;18.52;;;17.50;49.20;;;;;;5072097;28;20196;-44
2022/10/18 01:16:18;;;;;;;24.77;20.08;;;17.40;49.10;;;;;;5071249;28;20220;-44
2022/10/18 01:19:01;;;;;;;26.35;20.83;;;17.30;49.30;;;;;;5071722;28;20177;-45
2022/10/18 01:21:58;;;;;;;29.15;21.20;;;17.30;49.30;;;;;;5071820;28;20176;-45
2022/10/18 01:24:39;;;;;;;30.92;21.23;;;17.30;49.30;;;;;;5071885;28;20189;-43
2022/10/18 01:27:34;;;;;;;27.25;20.77;;;17.30;49.50;;;;;;5071453;28;20251;-45
2022/10/18 01:30:11;;;;;;;34.88;24.88;;;17.30;49.40;;;;;;5050181;28;20271;-42
2022/10/18 01:32:43;;;;;;;28.55;21.42;;;17.20;49.30;;;;;;5070300;28;20608;-42
2022/10/18 01:35:17;;;;;;;26.85;21.48;;;17.20;49.30;;;;;;5071652;28;20199;-44
2022/10/18 01:37:46;;;;;;;27.40;20.52;;;17.20;49.30;;;;;;5071383;28;20153;-44
2022/10/18 01:40:16;;;;;;;28.20;20.80;;;17.20;49.90;;;;;;5071600;28;20714;-44
2022/10/18 01:42:45;;;;;;;28.05;22.23;;;17.20;49.30;;;;;;5071965;28;20574;-43
2022/10/18 01:45:13;;;;;;;28.15;20.17;;;17.20;49.30;;;;;;5073767;28;20204;-45
2022/10/18 01:47:40;;;;;;;26.23;18.52;;;17.20;49.30;;;;;;5074815;28;20259;-44
2022/10/18 01:50:06;;;;;;;28.38;21.08;;;17.20;49.30;;;;;;5075256;28;20188;-44
2022/10/18 01:52:33;;;;;;;29.48;21.85;;;17.20;49.30;;;;;;5075222;28;20662;-45
2022/10/18 01:55:00;;;;;;;30.02;19.13;;;17.20;49.30;;;;;;5075061;28;20223;-42
2022/10/18 01:57:55;;;;;;;23.30;19.10;;;17.20;49.10;;;;;;5074629;28;20640;-44
2022/10/18 02:00:30;;;;;;;27.85;20.88;;;17.10;49.00;;;;;;5074098;28;20189;-44
2022/10/18 02:03:06;;;;;;;28.23;21.45;;;17.10;49.10;;;;;;5075568;28;20175;-44
2022/10/18 02:05:42;;;;;;;26.75;19.77;;;17.10;49.20;;;;;;5075139;28;20250;-45
2022/10/18 02:08:37;;;;;;;24.77;19.92;;;17.00;49.10;;;;;;5075309;28;20173;-43
2022/10/18 02:11:06;;;;;;;28.15;19.15;;;17.00;49.20;;;;;;5074814;28;20180;-45
2022/10/18 02:13:53;;;;;;;21.92;16.70;;;17.00;49.20;;;;;;5074786;28;20215;-44
2022/10/18 02:16:25;;;;;;;27.50;19.55;;;17.00;49.30;;;;;;5074169;28;20181;-43
2022/10/18 02:18:57;;;;;;;29.55;20.83;;;17.00;49.50;;;;;;5074831;28;20202;-43
2022/10/18 02:21:24;;;;;;;28.10;22.40;;;17.00;49.50;;;;;;5074795;28;20175;-45
2022/10/18 02:23:51;;;;;;;28.00;20.40;;;16.90;49.50;;;;;;5074889;28;20516;-45
2022/10/18 02:26:17;;;;;;;27.13;20.67;;;16.90;49.40;;;;;;5074195;28;20393;-46
2022/10/18 02:28:44;;;;;;;33.30;19.00;;;17.00;49.30;;;;;;5074795;28;20834;-45
2022/10/18 02:31:18;;;;;;;27.75;19.85;;;16.90;49.30;;;;;;5074503;28;20403;-44
2022/10/18 02:33:51;;;;;;;24.38;18.25;;;17.00;49.20;;;;;;5074722;28;20278;-43
2022/10/18 02:36:41;;;;;;;30.83;22.30;;;16.90;49.20;;;;;;5074163;28;20279;-45
2022/10/18 02:39:15;;;;;;;26.08;20.20;;;16.90;49.50;;;;;;5073579;28;20173;-44
2022/10/18 02:41:42;;;;;;;26.92;20.02;;;16.90;49.50;;;;;;5074399;28;20149;-44
2022/10/18 02:44:08;;;;;;;24.50;18.67;;;16.80;49.40;;;;;;5074367;28;20644;-42
2022/10/18 02:46:34;;;;;;;30.23;21.52;;;16.90;49.50;;;;;;5073894;28;20200;-44
2022/10/18 02:49:00;;;;;;;35.30;19.83;;;16.80;49.40;;;;;;5074459;28;20552;-43
2022/10/18 02:51:25;;;;;;;26.17;20.10;;;16.80;49.60;;;;;;5074227;28;20410;-43
2022/10/18 02:53:51;;;;;;;26.47;19.50;;;16.80;49.40;;;;;;5074103;28;20211;-45
2022/10/18 02:56:17;;;;;;;22.10;18.70;;;16.80;49.40;;;;;;5072369;28;20211;-43
2022/10/18 02:58:43;;;;;;;23.43;19.27;;;16.80;49.40;;;;;;5074051;28;20169;-45
2022/10/18 03:01:08;;;;;;;26.30;20.70;;;16.70;49.40;;;;;;5073927;28;20948;-42
2022/10/18 03:03:34;;;;;;;27.87;18.93;;;16.70;49.30;;;;;;5095793;22;20789;-42
2022/10/18 03:06:00;;;;;;;28.87;20.30;;;16.70;49.40;;;;;;5093496;28;20260;-42
2022/10/18 03:08:26;;;;;;;25.90;19.07;;;16.70;49.40;;;;;;5094133;28;20170;-41
2022/10/18 03:10:51;;;;;;;30.70;17.60;;;16.70;49.20;;;;;;5094351;28;20481;-41
2022/10/18 03:13:17;;;;;;;30.80;22.83;;;16.70;49.10;;;;;;5094145;28;20542;-41
2022/10/18 03:15:43;;;;;;;28.50;21.63;;;16.70;49.20;;;;;;5093464;28;20214;-42
2022/10/18 03:18:09;;;;;;;26.30;18.77;;;16.70;49.40;;;;;;5094060;28;20156;-41
2022/10/18 03:20:35;;;;;;;28.30;21.02;;;16.60;49.70;;;;;;5093760;28;20402;-43
2022/10/18 03:23:02;;;;;;;28.25;20.35;;;16.60;49.70;;;;;;5093823;28;20245;-41
2022/10/18 03:25:27;;;;;;;32.78;22.58;;;16.60;49.70;;;;;;5075567;28;20589;-41
2022/10/18 03:27:53;;;;;;;24.50;19.23;;;16.60;49.80;;;;;;5093146;28;20199;-42
2022/10/18 03:30:19;;;;;;;24.57;19.40;;;16.60;49.60;;;;;;5093753;28;20168;-42
2022/10/18 03:32:45;;;;;;;27.23;21.00;;;16.60;49.40;;;;;;5093542;28;20196;-41
2022/10/18 03:35:10;;;;;;;22.80;19.57;;;16.60;49.40;;;;;;5093499;28;20168;-43
2022/10/18 03:37:37;;;;;;;28.47;21.80;;;16.60;49.30;;;;;;5092973;28;20168;-41
2022/10/18 03:40:03;;;;;;;26.17;19.80;;;16.60;49.10;;;;;;5093521;28;20160;-40
2022/10/18 03:42:29;;;;;;;26.10;19.50;;;16.60;49.10;;;;;;5093303;28;20718;-42
2022/10/18 03:44:55;;;;;;;24.77;19.20;;;16.50;49.20;;;;;;5093407;28;20172;-41
2022/10/18 03:47:20;;;;;;;28.27;19.80;;;16.50;49.50;;;;;;5092839;28;20174;-41
2022/10/18 03:49:46;;;;;;;25.37;19.97;;;16.50;49.60;;;;;;5093342;28;20225;-41
2022/10/18 03:52:12;;;;;;;31.17;21.20;;;16.50;49.70;;;;;;5075308;28;20194;-41
2022/10/18 03:54:37;;;;;;;28.20;20.60;;;16.50;49.90;;;;;;5093329;28;20239;-42
2022/10/18 03:57:03;;;;;;;28.43;21.80;;;16.50;50.00;;;;;;5092804;28;20172;-40
2022/10/18 03:59:29;;;;;;;27.83;20.10;;;16.50;50.10;;;;;;5093197;28;20224;-42
2022/10/18 04:01:54;;;;;;;27.27;20.73;;;16.60;50.20;;;;;;5093133;28;20175;-41
2022/10/18 04:04:20;;;;;;;23.50;17.50;;;16.60;50.20;;;;;;5093024;28;20191;-41
2022/10/18 04:06:46;;;;;;;32.13;22.40;;;16.70;50.30;;;;;;5092145;28;20188;-42
2022/10/18 04:09:12;;;;;;;31.40;22.03;;;16.70;50.80;;;;;;5092975;28;20172;-42
2022/10/18 04:11:37;;;;;;;34.53;22.70;;;16.70;50.90;;;;;;5093079;28;20650;-40
2022/10/18 04:14:03;;;;;;;28.50;21.37;;;16.80;51.00;;;;;;5092636;28;20203;-41
2022/10/18 04:16:29;;;;;;;31.43;23.57;;;16.80;50.80;;;;;;5092570;28;20215;-41
2022/10/18 04:18:54;;;;;;;34.57;22.50;;;16.90;50.90;;;;;;5092642;28;20213;-42
2022/10/18 04:21:20;;;;;;;30.10;21.67;;;17.00;50.90;;;;;;5092730;28;20164;-42
2022/10/18 04:23:47;;;;;;;31.90;23.23;;;17.00;51.10;;;;;;5092725;28;20190;-42
2022/10/18 04:26:13;;;;;;;29.02;20.80;;;17.00;51.00;;;;;;5092130;28;20258;-42
2022/10/18 04:28:39;;;;;;;27.67;22.80;;;17.10;51.10;;;;;;5092511;28;20259;-42
2022/10/18 04:31:05;;;;;;;30.23;22.40;;;17.10;51.00;;;;;;5092827;28;20417;-42
2022/10/18 04:33:31;;;;;;;28.08;18.42;;;17.20;51.20;;;;;;5092364;28;20798;-41
2022/10/18 04:35:57;;;;;;;29.00;21.40;;;17.20;51.20;;;;;;5091987;28;20587;-42
2022/10/18 04:38:23;;;;;;;31.40;22.10;;;17.30;51.20;;;;;;5092486;28;20172;-42
2022/10/18 04:40:49;;;;;;;33.87;23.90;;;17.30;51.20;;;;;;5092458;28;20774;-42
2022/10/18 04:43:15;;;;;;;28.80;21.77;;;17.40;51.30;;;;;;5092426;28;20198;-41
2022/10/18 04:45:41;;;;;;;35.75;24.00;;;17.30;51.50;;;;;;5091859;28;20484;-41
2022/10/18 04:48:06;;;;;;;32.27;22.30;;;17.40;51.60;;;;;;5092203;28;20255;-41
2022/10/18 04:50:32;;;;;;;33.70;23.40;;;17.40;51.50;;;;;;5092834;28;20409;-42
2022/10/18 04:52:58;;;;;;;33.37;23.37;;;17.50;51.50;;;;;;5093212;28;20699;-42
2022/10/18 04:55:24;;;;;;;35.00;26.20;;;17.50;51.50;;;;;;5093372;28;20187;-41
2022/10/18 04:57:49;;;;;;;33.47;24.73;;;17.60;51.60;;;;;;5092546;28;20904;-41
2022/10/18 05:00:15;;;;;;;28.03;21.27;;;17.60;51.60;;;;;;5092876;28;20174;-42
2022/10/18 05:02:41;;;;;;;26.90;19.53;;;17.60;51.60;;;;;;5092261;28;20203;-40
2022/10/18 05:05:07;;;;;;;33.00;22.83;;;17.60;51.60;;;;;;5092160;28;20167;-42
2022/10/18 05:07:32;;;;;;;25.80;21.08;;;17.70;51.60;;;;;;5091384;28;20167;-41
2022/10/18 05:09:58;;;;;;;33.60;23.73;;;17.70;51.50;;;;;;5092116;28;20625;-41
2022/10/18 05:12:24;;;;;;;29.23;23.20;;;17.70;51.50;;;;;;5092077;28;20206;-42
2022/10/18 05:14:49;;;;;;;30.50;22.60;;;17.80;51.60;;;;;;5091894;28;20210;-42
2022/10/18 05:17:15;;;;;;;29.67;22.30;;;17.70;51.60;;;;;;5091385;28;20168;-42
2022/10/18 05:19:41;;;;;;;30.53;23.90;;;17.80;51.70;;;;;;5094187;28;20535;-41
2022/10/18 05:22:07;;;;;;;38.00;25.37;;;17.80;51.70;;;;;;5096253;28;20646;-41
2022/10/18 05:24:32;;;;;;;34.00;23.83;;;17.80;51.70;;;;;;5096213;28;20251;-40
2022/10/18 05:26:58;;;;;;;40.70;26.50;;;17.90;52.00;;;;;;5095433;28;20179;-42
2022/10/18 05:29:24;;;;;;;32.67;24.97;;;17.90;52.10;;;;;;5096323;28;20176;-41
2022/10/18 05:31:50;;;;;;;38.65;27.75;;;17.90;52.90;;;;;;5095881;28;20182;-43
2022/10/18 05:34:16;;;;;;;38.47;27.80;;;17.90;52.10;;;;;;5096179;28;20207;-43
2022/10/18 05:36:42;;;;;;;38.88;25.05;;;18.00;52.20;;;;;;5095571;28;20434;-42
2022/10/18 05:39:08;;;;;;;34.13;24.80;;;18.00;52.20;;;;;;5096407;28;20222;-42
2022/10/18 05:41:35;;;;;;;34.50;27.37;;;18.00;52.20;;;;;;5096178;28;20765;-43
2022/10/18 05:44:04;;;;;;;45.78;28.35;;;18.00;52.30;;;;;;5101941;28;20192;-41
2022/10/18 05:46:31;;;;;;;34.90;24.33;;;18.10;52.50;;;;;;5102624;28;20179;-44
2022/10/18 05:48:56;;;;;;;34.58;25.30;;;18.10;52.40;;;;;;5103330;28;20196;-43
2022/10/18 05:51:22;;;;;;;31.80;25.37;;;18.10;52.40;;;;;;5104347;28;20213;-43
2022/10/18 05:53:48;;;;;;;35.53;25.90;;;18.10;52.30;;;;;;5086397;28;20230;-41
2022/10/18 05:56:14;;;;;;;29.60;26.40;;;18.20;52.30;;;;;;5104347;28;20168;-42
2022/10/18 05:58:41;;;;;;;31.23;24.13;;;18.20;52.30;;;;;;5097774;28;20178;-41
2022/10/18 06:01:07;;;;;;;37.38;26.98;;;18.20;52.30;;;;;;5095449;28;20527;-43
2022/10/18 06:03:33;;;;;;;32.97;25.83;;;18.20;52.40;;;;;;5095935;28;20234;-41
2022/10/18 06:06:01;;;;;;;33.38;24.52;;;18.20;52.30;;;;;;5094679;28;20242;-41
2022/10/18 06:08:27;;;;;;;39.13;28.50;;;18.30;52.60;;;;;;5095573;28;20225;-42
2022/10/18 06:10:53;;;;;;;41.80;28.60;;;18.30;52.70;;;;;;5095407;28;20172;-42
2022/10/18 06:13:19;;;;;;;40.57;31.50;;;18.20;52.60;;;;;;5095146;28;20509;-43
2022/10/18 06:15:44;;;;;;;34.97;25.53;;;18.20;52.80;;;;;;5094561;28;20421;-41
2022/10/18 06:18:10;;;;;;;42.10;28.20;;;18.10;53.40;;;;;;5095110;28;20197;-41
2022/10/18 06:20:36;;;;;;;41.73;27.80;;;18.20;53.10;;;;;;5095161;28;20547;-41
2022/10/18 06:23:01;;;;;;;41.23;29.47;;;18.20;53.30;;;;;;5095035;28;20199;-41
2022/10/18 06:25:27;;;;;;;41.70;27.83;;;18.20;53.40;;;;;;5094920;28;20172;-42
2022/10/18 06:27:53;;;;;;;36.83;27.57;;;18.30;53.30;;;;;;5094594;28;20190;-43
2022/10/18 06:30:19;;;;;;;36.77;27.43;;;18.40;53.20;;;;;;5094683;28;20179;-41
2022/10/18 06:32:44;;;;;;;36.03;28.90;;;18.60;53.10;;;;;;5094581;28;20694;-42
2022/10/18 06:35:10;;;;;;;34.60;27.23;;;18.70;53.00;;;;;;5094866;28;20164;-42
2022/10/18 06:37:37;;;;;;;32.40;26.73;;;18.70;52.70;;;;;;5094391;28;20255;-41
2022/10/18 06:40:04;;;;;;;36.80;27.90;;;18.70;52.60;;;;;;5094582;28;20156;-42
2022/10/18 06:42:30;;;;;;;33.72;26.40;;;18.70;52.50;;;;;;5094521;28;20195;-43
2022/10/18 06:44:56;;;;;;;31.42;27.23;;;18.70;52.70;;;;;;5094370;28;20178;-43
2022/10/18 06:47:22;;;;;;;32.50;23.15;;;18.70;52.70;;;;;;5093929;28;20175;-42
2022/10/18 06:49:48;;;;;;;32.90;26.60;;;18.70;52.60;;;;;;5094432;28;20246;-42
2022/10/18 06:52:16;;;;;;;38.30;27.37;;;18.80;52.60;;;;;;5094462;28;20517;-43
2022/10/18 06:54:42;;;;;;;42.13;27.40;;;18.80;52.60;;;;;;5094253;28;20651;-42
2022/10/18 06:57:08;;;;;;;33.13;27.93;;;18.80;52.50;;;;;;5093698;28;20172;-42
2022/10/18 06:59:34;;;;;;;31.83;27.30;;;18.80;52.50;;;;;;5094144;28;20589;-43
2022/10/18 07:02:00;;;;;;;33.10;26.20;;;18.90;52.60;;;;;;5093993;28;20516;-42
2022/10/18 07:04:29;;;;;;;29.57;25.50;;;18.90;52.20;;;;;;5094146;28;20433;-40
2022/10/18 07:06:55;;;;;;;27.85;21.30;;;19.00;52.10;;;;;;5093799;28;20175;-41
2022/10/18 07:09:20;;;;;;;33.37;24.00;;;19.00;51.90;;;;;;5094314;28;20282;-41
2022/10/18 07:11:46;;;;;;;29.20;22.50;;;19.00;51.90;;;;;;5093933;28;20168;-43
2022/10/18 07:14:12;;;;;;;31.20;26.03;;;19.10;52.00;;;;;;5093875;28;20217;-41
2022/10/18 07:16:37;;;;;;;27.40;23.30;;;19.10;51.90;;;;;;5093540;28;20176;-41
2022/10/18 07:19:03;;;;;;;29.77;23.67;;;19.10;51.90;;;;;;5093840;28;20570;-42
2022/10/18 07:21:30;;;;;;;28.90;23.07;;;19.20;51.90;;;;;;5094173;28;20168;-42
2022/10/18 07:23:56;;;;;;;32.08;26.08;;;19.20;51.90;;;;;;5093953;28;20192;-41
2022/10/18 07:26:26;;;;;;;36.17;24.45;;;19.20;51.80;;;;;;5093174;28;20180;-43
2022/10/18 07:29:01;;;;;;;34.70;22.48;;;19.30;51.70;;;;;;5093817;28;20233;-43
2022/10/18 07:31:28;;;;;;;31.17;25.33;;;19.30;51.60;;;;;;5094044;28;20174;-42
2022/10/18 07:33:53;;;;;;;30.48;23.50;;;19.40;51.50;;;;;;5093493;28;20211;-41
2022/10/18 07:36:20;;;;;;;27.23;21.90;;;19.40;51.50;;;;;;5093361;28;20263;-42
2022/10/18 07:38:47;;;;;;;29.67;24.50;;;19.40;51.50;;;;;;5093645;28;20936;-40
2022/10/18 07:41:13;;;;;;;30.55;25.10;;;19.50;51.30;;;;;;5093702;28;20218;-42
2022/10/18 07:43:45;;;;;;;31.52;23.98;;;19.50;51.30;;;;;;5093256;28;20551;-43
2022/10/18 07:46:12;;;;;;;25.90;21.95;;;19.60;51.20;;;;;;5093325;28;20295;-41
2022/10/18 07:48:37;;;;;;;25.75;22.02;;;19.50;50.90;;;;;;5093555;28;20178;-41
2022/10/18 07:51:04;;;;;;;26.43;22.30;;;19.60;50.80;;;;;;5093539;28;20250;-43
2022/10/18 07:53:30;;;;;;;31.55;23.15;;;19.60;50.60;;;;;;5093252;28;20437;-43
2022/10/18 07:56:01;;;;;;;26.20;20.98;;;19.60;50.40;;;;;;5092766;28;20171;-42
2022/10/18 07:58:27;;;;;;;35.53;23.00;;;19.60;50.60;;;;;;5093660;28;20196;-43
2022/10/18 08:00:53;;;;;;;25.90;22.77;;;19.60;50.70;;;;;;5093321;28;20164;-41
2022/10/18 08:03:20;;;;;;;26.65;21.67;;;19.60;50.40;;;;;;5093091;28;20219;-43
2022/10/18 08:05:53;;;;;;;27.33;21.35;;;19.60;50.40;;;;;;5092549;28;20647;-43
2022/10/18 08:08:23;;;;;;;28.73;22.63;;;19.60;50.20;;;;;;5092957;28;20168;-42
2022/10/18 08:10:49;;;;;;;29.42;23.52;;;19.60;50.30;;;;;;5092974;28;20229;-41
2022/10/18 08:13:15;;;;;;;29.05;24.90;;;19.60;50.40;;;;;;5093001;28;20219;-41
2022/10/18 08:15:41;;;;;;;28.50;24.52;;;19.60;50.70;;;;;;5092493;28;20171;-40
2022/10/18 08:18:07;;;;;;;25.17;21.37;;;19.50;50.80;;;;;;5093023;28;20160;-41
2022/10/18 08:20:35;;;;;;;29.20;22.10;;;19.50;50.90;;;;;;5092906;28;20894;-41
2022/10/18 08:23:01;;;;;;;40.30;21.92;;;19.60;50.80;;;;;;5092636;28;20234;-42
2022/10/18 08:25:28;;;;;;;33.40;23.70;;;19.60;50.70;;;;;;5092718;28;20180;-42
2022/10/18 08:27:53;;;;;;;29.90;23.80;;;19.60;50.60;;;;;;5092296;28;20222;-43
2022/10/18 08:30:19;;;;;;;28.90;25.00;;;19.60;50.40;;;;;;5092619;28;20656;-42
2022/10/18 08:32:45;;;;;;;28.50;21.97;;;19.60;50.60;;;;;;5092631;28;20279;-41
2022/10/18 08:35:11;;;;;;;26.97;21.47;;;19.60;51.00;;;;;;5092324;28;20890;-41
2022/10/18 08:37:37;;;;;;;26.13;22.40;;;19.70;51.10;;;;;;5092122;28;20168;-41
2022/10/18 08:40:03;;;;;;;31.80;23.20;;;19.70;51.00;;;;;;5092712;28;20271;-41
2022/10/18 08:42:51;;;;;;;27.42;22.55;;;19.80;50.80;;;;;;5092673;28;20245;-41
2022/10/18 08:45:17;;;;;;;29.55;22.00;;;19.90;50.80;;;;;;5092646;28;20152;-41
2022/10/18 08:47:45;;;;;;;26.65;23.58;;;19.90;50.70;;;;;;5091672;28;20555;-42
2022/10/18 08:50:16;;;;;;;27.13;21.77;;;19.90;50.20;;;;;;5092291;28;20167;-42
2022/10/18 08:52:57;;;;;;;30.60;22.90;;;19.90;50.40;;;;;;5091968;28;20200;-43
2022/10/18 08:55:28;;;;;;;29.48;22.67;;;19.90;50.50;;;;;;5091487;28;20156;-42
2022/10/18 08:57:57;;;;;;;28.13;22.75;;;19.90;50.70;;;;;;5092039;28;20172;-43
2022/10/18 09:00:27;;;;;;;27.73;23.90;;;19.90;50.60;;;;;;5092365;28;20168;-42
2022/10/18 09:03:31;;;;;;;27.63;21.75;;;20.00;50.40;;;;;;5092214;28;20207;-41
2022/10/18 09:06:09;;;;;;;28.25;22.00;;;20.00;50.40;;;;;;5091540;28;20229;-42
2022/10/18 09:08:52;;;;;;;27.60;21.17;;;20.00;50.60;;;;;;5092001;28;20168;-43
2022/10/18 09:11:18;;;;;;;31.20;25.13;;;20.00;50.40;;;;;;5092321;28;20164;-43
2022/10/18 09:14:03;;;;;;;25.80;21.13;;;20.10;50.60;;;;;;5091840;28;20203;-42
2022/10/18 09:16:43;;;;;;;28.17;22.20;;;20.20;50.30;;;;;;5091753;28;20199;-41
2022/10/18 09:19:24;;;;;;;26.27;22.05;;;20.20;50.30;;;;;;5091980;28;20191;-42
2022/10/18 09:22:19;;;;;;;27.05;21.02;;;20.20;50.40;;;;;;5091963;28;20511;-42
2022/10/18 09:24:59;;;;;;;26.73;22.10;;;20.20;50.60;;;;;;5092018;28;20179;-42
2022/10/18 09:28:01;;;;;;;26.20;21.05;;;20.20;50.40;;;;;;5091478;28;20164;-43
2022/10/18 09:30:42;;;;;;;31.35;22.80;;;20.20;50.40;;;;;;5074099;28;20178;-44
2022/10/18 09:33:38;;;;;;;28.63;24.25;;;20.20;50.50;;;;;;5096505;28;20586;-44
2022/10/18 09:36:09;;;;;;;34.60;23.10;;;20.30;50.60;;;;;;5091714;28;20168;-42
2022/10/18 09:38:48;;;;;;;28.13;22.35;;;20.40;50.70;;;;;;5092155;28;20200;-43
2022/10/18 09:41:53;;;;;;;30.55;20.83;;;20.50;50.80;;;;;;5100217;28;20551;-42
2022/10/18 09:44:32;;;;;;;33.15;22.15;;;20.60;50.50;;;;;;5100174;28;20176;-43
2022/10/18 09:47:09;;;;;;;28.95;22.27;;;20.60;50.20;;;;;;5098903;28;20176;-43
2022/10/18 09:50:03;;;;;;;34.33;23.63;;;20.70;50.30;;;;;;5100848;28;20178;-42
2022/10/18 09:52:40;;;;;;;28.15;24.05;;;20.80;50.30;;;;;;5100531;28;20236;-42
2022/10/18 09:55:21;;;;;;;30.10;23.58;;;20.80;50.10;;;;;;5102182;28;20239;-43
2022/10/18 09:57:53;;;;;;;28.13;22.20;;;20.80;49.80;;;;;;5093165;28;20163;-43
2022/10/18 10:00:28;;;;;;;28.00;22.33;;;20.90;49.90;;;;;;5091980;28;20255;-42
2022/10/18 10:02:54;;;;;;;26.45;22.48;;;20.90;49.50;;;;;;5091277;28;20211;-42
2022/10/18 10:05:19;;;;;;;27.80;22.20;;;21.00;49.50;;;;;;5092490;28;20710;-44
2022/10/18 10:07:47;;;;;;;26.77;20.83;;;21.00;49.10;;;;;;5094641;28;20168;-43
2022/10/18 10:10:20;;;;;;;26.98;22.05;;;21.00;49.20;;;;;;5095200;28;20168;-42
2022/10/18 10:12:46;;;;;;;28.20;22.10;;;21.10;49.30;;;;;;5095117;28;20232;-43
2022/10/18 10:15:18;;;;;;;22.60;19.98;;;21.20;49.30;;;;;;5110225;22;20227;-41
2022/10/18 10:17:52;;;;;;;23.70;19.35;;;21.30;49.20;;;;;;5110055;28;20251;-40
2022/10/18 10:20:22;;;;;;;24.17;19.73;;;21.50;49.40;;;;;;5095344;28;20208;-41
2022/10/18 10:22:50;;;;;;;25.13;21.33;;;21.50;48.70;;;;;;5093973;28;20221;-42
2022/10/18 10:25:29;;;;;;;25.27;19.17;;;21.50;48.10;;;;;;5094726;28;20218;-40
2022/10/18 10:28:00;;;;;;;24.95;21.50;;;21.50;48.40;;;;;;5094974;28;20152;-42
2022/10/18 10:30:35;;;;;;;22.83;19.50;;;21.50;48.60;;;;;;5094947;28;20176;-42
2022/10/18 10:33:02;;;;;;;24.20;19.20;;;21.60;49.00;;;;;;5094812;28;20536;-41
2022/10/18 10:35:31;;;;;;;24.20;20.20;;;21.60;49.10;;;;;;5094677;28;20744;-41
2022/10/18 10:37:57;;;;;;;25.92;21.17;;;21.60;49.10;;;;;;5094431;28;20623;-42
2022/10/18 10:40:24;;;;;;;23.73;20.55;;;21.60;49.00;;;;;;5094684;28;20211;-42
2022/10/18 10:42:52;;;;;;;27.08;22.25;;;21.60;48.90;;;;;;5094589;28;20668;-43
2022/10/18 10:45:20;;;;;;;26.83;20.52;;;21.60;49.10;;;;;;5094542;28;20176;-41
2022/10/18 10:47:47;;;;;;;31.17;18.63;;;21.60;49.20;;;;;;5094080;28;20765;-40
2022/10/18 10:50:21;;;;;;;26.48;19.02;;;21.50;49.20;;;;;;5094449;28;20239;-44
2022/10/18 10:52:47;;;;;;;19.20;17.17;;;21.50;49.50;;;;;;5094419;28;20159;-43
2022/10/18 10:55:19;;;;;;;19.90;15.83;;;21.40;50.00;;;;;;5094369;28;20192;-41
2022/10/18 10:57:47;;;;;;;22.52;16.77;;;21.20;50.40;;;;;;5093877;28;20398;-44
2022/10/18 11:00:37;;;;;;;16.77;14.87;;;21.20;50.90;;;;;;5094354;28;20174;-43
2022/10/18 11:03:29;;;;;;;16.33;14.60;;;21.10;51.20;;;;;;5094200;28;20841;-42
2022/10/18 11:05:56;;;;;;;14.90;11.57;;;21.00;51.50;;;;;;5090681;28;20802;-44
2022/10/18 11:08:25;;;;;;;15.50;11.33;;;20.80;51.60;;;;;;5094265;28;20451;-43
2022/10/18 11:11:20;;;;;;;11.68;9.80;;;20.80;52.20;;;;;;5094380;28;20428;-42
2022/10/18 11:13:52;;;;;;;11.52;9.27;;;20.70;51.90;;;;;;5094010;28;20227;-42
2022/10/18 11:16:34;;;;;;;11.05;9.38;;;20.60;52.20;;;;;;5092917;28;20682;-43
2022/10/18 11:19:08;;;;;;;9.23;7.70;;;20.60;52.30;;;;;;5093701;28;20213;-42
2022/10/18 11:21:35;;;;;;;11.70;9.40;;;20.60;52.50;;;;;;5093854;28;20392;-43
2022/10/18 11:24:02;;;;;;;10.60;7.27;;;20.60;52.50;;;;;;5094043;28;20406;-44
2022/10/18 11:26:43;;;;;;;8.70;6.40;;;20.60;52.80;;;;;;5093402;28;20430;-43
2022/10/18 11:29:29;;;;;;;8.73;7.25;;;20.60;52.90;;;;;;5093792;28;20723;-42
2022/10/18 11:32:01;;;;;;;10.15;7.50;;;20.60;52.80;;;;;;5093710;28;20160;-43
2022/10/18 11:34:30;;;;;;;8.57;7.13;;;20.60;52.80;;;;;;5093809;28;20206;-41
2022/10/18 11:37:09;;;;;;;7.97;6.93;;;20.60;53.10;;;;;;5093151;28;20666;-44
2022/10/18 11:39:49;;;;;;;7.30;5.05;;;20.60;53.10;;;;;;5093648;28;20203;-42
2022/10/18 11:42:43;;;;;;;7.07;6.35;;;20.70;53.20;;;;;;5093476;28;20649;-42
2022/10/18 11:45:28;;;;;;;6.90;5.05;;;20.70;53.30;;;;;;5093409;28;20655;-42
2022/10/18 11:47:57;;;;;;;6.40;4.70;;;20.80;53.20;;;;;;5093191;28;20187;-43
2022/10/18 11:51:05;;;;;;;5.07;4.25;;;20.70;53.30;;;;;;5093308;28;20195;-42
2022/10/18 11:54:08;;;;;;;6.57;4.90;;;20.80;53.40;;;;;;5080706;28;20666;-43
2022/10/18 11:57:07;;;;;;;8.18;5.53;;;20.80;53.30;;;;;;5092569;28;20191;-43
2022/10/18 11:59:56;;;;;;;5.57;4.95;;;20.70;53.30;;;;;;5092958;28;20191;-41
2022/10/18 12:03:00;;;;;;;5.28;4.15;;;20.80;53.50;;;;;;5093150;28;20164;-42
2022/10/18 12:05:28;;;;;;;6.80;4.10;;;20.70;53.50;;;;;;5092883;28;20836;-44
2022/10/18 12:08:21;;;;;;;6.53;4.10;;;20.70;53.60;;;;;;5092538;28;20406;-41
2022/10/18 12:10:51;;;;;;;4.95;3.40;;;20.70;53.70;;;;;;5093056;28;20400;-42
2022/10/18 12:13:43;;;;;;;5.25;4.15;;;20.70;53.90;;;;;;5093113;28;20200;-43
2022/10/18 12:16:09;;;;;;;5.55;3.72;;;20.70;53.70;;;;;;5091833;28;20288;-41
2022/10/18 12:19:06;;;;;;;5.88;3.40;;;20.70;53.90;;;;;;5093057;28;20171;-42
2022/10/18 12:21:33;;;;;;;4.38;3.00;;;20.70;54.00;;;;;;5091537;28;20180;-42
2022/10/18 12:24:05;;;;;;;4.27;2.77;;;20.70;54.10;;;;;;5092666;28;20183;-43
2022/10/18 12:26:32;;;;;;;3.78;2.63;;;20.70;54.10;;;;;;5092328;28;20876;-42
2022/10/18 12:29:19;;;;;;;3.63;2.80;;;20.70;54.10;;;;;;5092585;28;20194;-42
2022/10/18 12:31:59;;;;;;;2.60;2.37;;;20.70;54.10;;;;;;5092697;28;20402;-44
2022/10/18 12:34:38;;;;;;;2.70;2.30;;;20.70;54.10;;;;;;5092509;28;20459;-42
2022/10/18 12:37:28;;;;;;;4.25;2.50;;;20.70;54.40;;;;;;5091977;28;20520;-41
2022/10/18 12:39:59;;;;;;;2.90;1.85;;;20.80;54.20;;;;;;5092501;28;20184;-41
2022/10/18 12:42:29;;;;;;;3.20;2.20;;;20.70;54.50;;;;;;5092549;28;20176;-43
2022/10/18 12:45:22;;;;;;;2.85;2.40;;;20.60;54.30;;;;;;5092313;28;20485;-44
2022/10/18 12:47:48;;;;;;;4.53;3.78;;;20.60;54.40;;;;;;5091948;28;20168;-41